sensor_id;sensor_type;location;lat;lon;timestamp;P1;durP1;ratioP1;P2;durP2;ratioP2
16516;SDS011;8371;52.272;9.746;2023-06-26T00:01:54;3.40;;;3.30;;
16516;SDS011;8371;52.272;9.746;2023-06-26T00:04:19;3.17;;;3.07;;
16516;SDS011;8371;52.272;9.746;2023-06-26T00:06:45;3.00;;;2.90;;
16516;SDS011;8371;52.272;9.746;2023-06-26T00:09:11;2.90;;;2.80;;
16516;SDS011;8371;52.272;9.746;2023-06-26T00:11:37;3.20;;;3.10;;
16516;SDS011;8371;52.272;9.746;2023-06-26T00:14:03;3.73;;;3.53;;
16516;SDS011;8371;52.272;9.746;2023-06-26T00:16:28;3.10;;;3.00;;
16516;SDS011;8371;52.272;9.746;2023-06-26T00:18:56;3.23;;;3.13;;
16516;SDS011;8371;52.272;9.746;2023-06-26T00:21:21;3.10;;;3.00;;
16516;SDS011;8371;52.272;9.746;2023-06-26T00:23:47;3.40;;;3.30;;
16516;SDS011;8371;52.272;9.746;2023-06-26T00:26:13;3.07;;;2.97;;
16516;SDS011;8371;52.272;9.746;2023-06-26T00:28:38;3.60;;;3.40;;
16516;SDS011;8371;52.272;9.746;2023-06-26T00:31:04;2.87;;;2.77;;
16516;SDS011;8371;52.272;9.746;2023-06-26T00:33:30;3.20;;;3.10;;
16516;SDS011;8371;52.272;9.746;2023-06-26T00:35:55;3.40;;;3.30;;
16516;SDS011;8371;52.272;9.746;2023-06-26T00:38:21;3.10;;;3.00;;
16516;SDS011;8371;52.272;9.746;2023-06-26T00:40:47;3.07;;;2.97;;
16516;SDS011;8371;52.272;9.746;2023-06-26T00:43:12;4.10;;;3.00;;
16516;SDS011;8371;52.272;9.746;2023-06-26T00:45:38;2.80;;;2.70;;
16516;SDS011;8371;52.272;9.746;2023-06-26T00:48:04;3.10;;;3.00;;
16516;SDS011;8371;52.272;9.746;2023-06-26T00:50:31;3.13;;;3.03;;
16516;SDS011;8371;52.272;9.746;2023-06-26T00:52:57;3.03;;;2.93;;
16516;SDS011;8371;52.272;9.746;2023-06-26T00:55:28;2.83;;;2.73;;
16516;SDS011;8371;52.272;9.746;2023-06-26T00:57:54;3.03;;;2.93;;
16516;SDS011;8371;52.272;9.746;2023-06-26T01:00:20;2.97;;;2.87;;
16516;SDS011;8371;52.272;9.746;2023-06-26T01:02:46;2.67;;;2.57;;
16516;SDS011;8371;52.272;9.746;2023-06-26T01:05:12;2.90;;;2.80;;
16516;SDS011;8371;52.272;9.746;2023-06-26T01:07:40;3.37;;;3.27;;
16516;SDS011;8371;52.272;9.746;2023-06-26T01:10:06;2.50;;;2.40;;
16516;SDS011;8371;52.272;9.746;2023-06-26T01:12:33;3.40;;;3.30;;
16516;SDS011;8371;52.272;9.746;2023-06-26T01:14:59;2.90;;;2.80;;
16516;SDS011;8371;52.272;9.746;2023-06-26T01:17:26;3.60;;;3.50;;
16516;SDS011;8371;52.272;9.746;2023-06-26T01:19:54;3.00;;;2.90;;
16516;SDS011;8371;52.272;9.746;2023-06-26T01:22:26;3.30;;;3.20;;
16516;SDS011;8371;52.272;9.746;2023-06-26T01:25:00;2.70;;;2.60;;
16516;SDS011;8371;52.272;9.746;2023-06-26T01:27:49;2.90;;;2.80;;
16516;SDS011;8371;52.272;9.746;2023-06-26T01:30:17;3.07;;;2.97;;
16516;SDS011;8371;52.272;9.746;2023-06-26T01:32:44;2.43;;;2.40;;
16516;SDS011;8371;52.272;9.746;2023-06-26T01:35:10;6.63;;;2.93;;
16516;SDS011;8371;52.272;9.746;2023-06-26T01:37:37;2.70;;;2.60;;
16516;SDS011;8371;52.272;9.746;2023-06-26T01:40:03;2.90;;;2.70;;
16516;SDS011;8371;52.272;9.746;2023-06-26T01:42:33;3.30;;;3.20;;
16516;SDS011;8371;52.272;9.746;2023-06-26T01:45:01;3.07;;;2.97;;
16516;SDS011;8371;52.272;9.746;2023-06-26T01:47:34;3.20;;;3.10;;
16516;SDS011;8371;52.272;9.746;2023-06-26T01:50:05;3.47;;;3.30;;
16516;SDS011;8371;52.272;9.746;2023-06-26T01:52:42;2.87;;;2.77;;
16516;SDS011;8371;52.272;9.746;2023-06-26T01:57:42;3.17;;;3.07;;
16516;SDS011;8371;52.272;9.746;2023-06-26T02:00:09;3.13;;;3.03;;
16516;SDS011;8371;52.272;9.746;2023-06-26T02:02:36;3.03;;;2.93;;
16516;SDS011;8371;52.272;9.746;2023-06-26T02:05:02;3.20;;;3.10;;
16516;SDS011;8371;52.272;9.746;2023-06-26T02:07:28;2.70;;;2.50;;
16516;SDS011;8371;52.272;9.746;2023-06-26T02:09:54;3.27;;;2.97;;
16516;SDS011;8371;52.272;9.746;2023-06-26T02:12:19;2.87;;;2.70;;
16516;SDS011;8371;52.272;9.746;2023-06-26T02:14:45;2.77;;;2.67;;
16516;SDS011;8371;52.272;9.746;2023-06-26T02:17:11;3.13;;;3.03;;
16516;SDS011;8371;52.272;9.746;2023-06-26T02:19:36;3.23;;;3.13;;
16516;SDS011;8371;52.272;9.746;2023-06-26T02:22:04;3.17;;;2.97;;
16516;SDS011;8371;52.272;9.746;2023-06-26T02:24:30;2.93;;;2.83;;
16516;SDS011;8371;52.272;9.746;2023-06-26T02:26:56;3.00;;;2.90;;
16516;SDS011;8371;52.272;9.746;2023-06-26T02:29:22;2.50;;;2.40;;
16516;SDS011;8371;52.272;9.746;2023-06-26T02:31:48;2.80;;;2.70;;
16516;SDS011;8371;52.272;9.746;2023-06-26T02:34:14;3.00;;;2.80;;
16516;SDS011;8371;52.272;9.746;2023-06-26T02:36:40;2.73;;;2.63;;
16516;SDS011;8371;52.272;9.746;2023-06-26T02:39:05;2.27;;;2.17;;
16516;SDS011;8371;52.272;9.746;2023-06-26T02:41:31;2.67;;;2.50;;
16516;SDS011;8371;52.272;9.746;2023-06-26T02:43:57;3.10;;;3.00;;
16516;SDS011;8371;52.272;9.746;2023-06-26T02:46:22;2.63;;;2.53;;
16516;SDS011;8371;52.272;9.746;2023-06-26T02:48:48;2.80;;;2.70;;
16516;SDS011;8371;52.272;9.746;2023-06-26T02:51:13;2.10;;;2.10;;
16516;SDS011;8371;52.272;9.746;2023-06-26T02:53:39;2.50;;;2.40;;
16516;SDS011;8371;52.272;9.746;2023-06-26T02:56:05;2.30;;;2.20;;
16516;SDS011;8371;52.272;9.746;2023-06-26T02:58:30;2.80;;;2.70;;
16516;SDS011;8371;52.272;9.746;2023-06-26T03:00:56;2.80;;;2.70;;
16516;SDS011;8371;52.272;9.746;2023-06-26T03:03:22;2.57;;;2.47;;
16516;SDS011;8371;52.272;9.746;2023-06-26T03:05:48;2.70;;;2.60;;
16516;SDS011;8371;52.272;9.746;2023-06-26T03:08:14;2.73;;;2.63;;
16516;SDS011;8371;52.272;9.746;2023-06-26T03:10:39;2.50;;;2.30;;
16516;SDS011;8371;52.272;9.746;2023-06-26T03:13:05;2.60;;;2.50;;
16516;SDS011;8371;52.272;9.746;2023-06-26T03:15:31;2.53;;;2.43;;
16516;SDS011;8371;52.272;9.746;2023-06-26T03:17:56;2.83;;;2.70;;
16516;SDS011;8371;52.272;9.746;2023-06-26T03:20:22;5.03;;;2.70;;
16516;SDS011;8371;52.272;9.746;2023-06-26T03:22:48;2.03;;;2.03;;
16516;SDS011;8371;52.272;9.746;2023-06-26T03:25:13;2.60;;;2.50;;
16516;SDS011;8371;52.272;9.746;2023-06-26T03:27:39;2.50;;;2.50;;
16516;SDS011;8371;52.272;9.746;2023-06-26T03:30:05;2.73;;;2.63;;
16516;SDS011;8371;52.272;9.746;2023-06-26T03:32:31;2.67;;;2.57;;
16516;SDS011;8371;52.272;9.746;2023-06-26T03:34:57;2.57;;;2.47;;
16516;SDS011;8371;52.272;9.746;2023-06-26T03:37:22;2.80;;;2.60;;
16516;SDS011;8371;52.272;9.746;2023-06-26T03:39:48;2.87;;;2.77;;
16516;SDS011;8371;52.272;9.746;2023-06-26T03:42:14;2.53;;;2.43;;
16516;SDS011;8371;52.272;9.746;2023-06-26T03:44:39;3.00;;;2.90;;
16516;SDS011;8371;52.272;9.746;2023-06-26T03:47:05;2.80;;;2.70;;
16516;SDS011;8371;52.272;9.746;2023-06-26T03:49:31;3.03;;;2.83;;
16516;SDS011;8371;52.272;9.746;2023-06-26T03:51:56;4.73;;;3.43;;
16516;SDS011;8371;52.272;9.746;2023-06-26T03:54:22;2.60;;;2.50;;
16516;SDS011;8371;52.272;9.746;2023-06-26T03:56:48;2.87;;;2.77;;
16516;SDS011;8371;52.272;9.746;2023-06-26T03:59:14;3.03;;;2.90;;
16516;SDS011;8371;52.272;9.746;2023-06-26T04:01:40;2.97;;;2.87;;
16516;SDS011;8371;52.272;9.746;2023-06-26T04:04:05;2.57;;;2.57;;
16516;SDS011;8371;52.272;9.746;2023-06-26T04:06:31;2.20;;;2.20;;
16516;SDS011;8371;52.272;9.746;2023-06-26T04:08:57;2.63;;;2.43;;
16516;SDS011;8371;52.272;9.746;2023-06-26T04:11:23;2.73;;;2.50;;
16516;SDS011;8371;52.272;9.746;2023-06-26T04:13:49;2.73;;;2.63;;
16516;SDS011;8371;52.272;9.746;2023-06-26T04:16:15;2.60;;;2.50;;
16516;SDS011;8371;52.272;9.746;2023-06-26T04:18:41;2.77;;;2.67;;
16516;SDS011;8371;52.272;9.746;2023-06-26T04:21:10;2.90;;;2.80;;
16516;SDS011;8371;52.272;9.746;2023-06-26T04:23:38;2.20;;;2.20;;
16516;SDS011;8371;52.272;9.746;2023-06-26T04:26:05;3.10;;;2.90;;
16516;SDS011;8371;52.272;9.746;2023-06-26T04:28:32;2.80;;;2.70;;
16516;SDS011;8371;52.272;9.746;2023-06-26T04:30:58;2.37;;;2.37;;
16516;SDS011;8371;52.272;9.746;2023-06-26T04:33:25;2.83;;;2.73;;
16516;SDS011;8371;52.272;9.746;2023-06-26T04:35:51;3.03;;;2.83;;
16516;SDS011;8371;52.272;9.746;2023-06-26T04:38:17;2.60;;;2.50;;
16516;SDS011;8371;52.272;9.746;2023-06-26T04:40:43;2.50;;;2.50;;
16516;SDS011;8371;52.272;9.746;2023-06-26T04:43:09;2.63;;;2.53;;
16516;SDS011;8371;52.272;9.746;2023-06-26T04:45:35;2.83;;;2.73;;
16516;SDS011;8371;52.272;9.746;2023-06-26T04:48:01;2.70;;;2.60;;
16516;SDS011;8371;52.272;9.746;2023-06-26T04:50:27;2.90;;;2.80;;
16516;SDS011;8371;52.272;9.746;2023-06-26T04:52:54;3.03;;;2.83;;
16516;SDS011;8371;52.272;9.746;2023-06-26T04:55:21;2.87;;;2.77;;
16516;SDS011;8371;52.272;9.746;2023-06-26T04:57:49;3.03;;;2.90;;
16516;SDS011;8371;52.272;9.746;2023-06-26T05:00:15;2.43;;;2.40;;
16516;SDS011;8371;52.272;9.746;2023-06-26T05:02:41;2.27;;;2.27;;
16516;SDS011;8371;52.272;9.746;2023-06-26T05:05:07;2.60;;;2.50;;
16516;SDS011;8371;52.272;9.746;2023-06-26T05:07:33;2.47;;;2.43;;
16516;SDS011;8371;52.272;9.746;2023-06-26T05:09:58;2.60;;;2.53;;
16516;SDS011;8371;52.272;9.746;2023-06-26T05:12:24;2.67;;;2.57;;
16516;SDS011;8371;52.272;9.746;2023-06-26T05:14:50;2.57;;;2.47;;
16516;SDS011;8371;52.272;9.746;2023-06-26T05:17:16;2.60;;;2.50;;
16516;SDS011;8371;52.272;9.746;2023-06-26T05:19:41;2.60;;;2.50;;
16516;SDS011;8371;52.272;9.746;2023-06-26T05:22:07;2.37;;;2.33;;
16516;SDS011;8371;52.272;9.746;2023-06-26T05:24:34;2.60;;;2.50;;
16516;SDS011;8371;52.272;9.746;2023-06-26T05:27:01;2.90;;;2.80;;
16516;SDS011;8371;52.272;9.746;2023-06-26T05:29:28;2.60;;;2.43;;
16516;SDS011;8371;52.272;9.746;2023-06-26T05:31:55;2.80;;;2.70;;
16516;SDS011;8371;52.272;9.746;2023-06-26T05:34:22;2.50;;;2.50;;
16516;SDS011;8371;52.272;9.746;2023-06-26T05:36:50;2.83;;;2.63;;
16516;SDS011;8371;52.272;9.746;2023-06-26T05:39:17;2.57;;;2.47;;
16516;SDS011;8371;52.272;9.746;2023-06-26T05:41:46;2.43;;;2.40;;
16516;SDS011;8371;52.272;9.746;2023-06-26T05:44:12;2.43;;;2.43;;
16516;SDS011;8371;52.272;9.746;2023-06-26T05:46:37;2.63;;;2.53;;
16516;SDS011;8371;52.272;9.746;2023-06-26T05:49:03;2.93;;;2.73;;
16516;SDS011;8371;52.272;9.746;2023-06-26T05:51:29;2.43;;;2.20;;
16516;SDS011;8371;52.272;9.746;2023-06-26T05:53:55;2.70;;;2.60;;
16516;SDS011;8371;52.272;9.746;2023-06-26T05:56:21;2.97;;;2.77;;
16516;SDS011;8371;52.272;9.746;2023-06-26T05:58:47;3.00;;;2.80;;
16516;SDS011;8371;52.272;9.746;2023-06-26T06:01:14;2.43;;;2.33;;
16516;SDS011;8371;52.272;9.746;2023-06-26T06:03:39;2.73;;;2.63;;
16516;SDS011;8371;52.272;9.746;2023-06-26T06:06:05;2.90;;;2.80;;
16516;SDS011;8371;52.272;9.746;2023-06-26T06:08:31;2.80;;;2.70;;
16516;SDS011;8371;52.272;9.746;2023-06-26T06:10:57;2.97;;;2.87;;
16516;SDS011;8371;52.272;9.746;2023-06-26T06:13:23;3.07;;;2.87;;
16516;SDS011;8371;52.272;9.746;2023-06-26T06:15:48;2.77;;;2.67;;
16516;SDS011;8371;52.272;9.746;2023-06-26T06:18:14;2.90;;;2.80;;
16516;SDS011;8371;52.272;9.746;2023-06-26T06:20:40;2.90;;;2.80;;
16516;SDS011;8371;52.272;9.746;2023-06-26T06:23:05;2.93;;;2.83;;
16516;SDS011;8371;52.272;9.746;2023-06-26T06:25:31;2.97;;;2.87;;
16516;SDS011;8371;52.272;9.746;2023-06-26T06:27:57;2.90;;;2.80;;
16516;SDS011;8371;52.272;9.746;2023-06-26T06:30:23;2.90;;;2.80;;
16516;SDS011;8371;52.272;9.746;2023-06-26T06:32:48;2.60;;;2.50;;
16516;SDS011;8371;52.272;9.746;2023-06-26T06:35:17;2.77;;;2.67;;
16516;SDS011;8371;52.272;9.746;2023-06-26T06:37:43;2.90;;;2.73;;
16516;SDS011;8371;52.272;9.746;2023-06-26T06:40:09;3.20;;;2.90;;
16516;SDS011;8371;52.272;9.746;2023-06-26T06:42:35;3.00;;;2.90;;
16516;SDS011;8371;52.272;9.746;2023-06-26T06:45:06;3.00;;;2.90;;
16516;SDS011;8371;52.272;9.746;2023-06-26T06:47:29;3.27;;;3.07;;
16516;SDS011;8371;52.272;9.746;2023-06-26T06:49:55;2.93;;;2.83;;
16516;SDS011;8371;52.272;9.746;2023-06-26T06:52:21;3.20;;;3.10;;
16516;SDS011;8371;52.272;9.746;2023-06-26T06:54:56;3.45;;;3.25;;
16516;SDS011;8371;52.272;9.746;2023-06-26T06:57:28;3.27;;;3.07;;
16516;SDS011;8371;52.272;9.746;2023-06-26T06:59:53;3.13;;;2.93;;
16516;SDS011;8371;52.272;9.746;2023-06-26T07:02:19;2.70;;;2.70;;
16516;SDS011;8371;52.272;9.746;2023-06-26T07:04:45;3.08;;;2.87;;
16516;SDS011;8371;52.272;9.746;2023-06-26T07:07:11;3.10;;;3.00;;
16516;SDS011;8371;52.272;9.746;2023-06-26T07:09:39;3.67;;;3.27;;
16516;SDS011;8371;52.272;9.746;2023-06-26T07:12:05;3.37;;;3.27;;
16516;SDS011;8371;52.272;9.746;2023-06-26T07:14:30;3.37;;;3.27;;
16516;SDS011;8371;52.272;9.746;2023-06-26T07:16:56;3.52;;;3.42;;
16516;SDS011;8371;52.272;9.746;2023-06-26T07:19:22;3.60;;;3.50;;
16516;SDS011;8371;52.272;9.746;2023-06-26T07:21:51;3.90;;;3.60;;
16516;SDS011;8371;52.272;9.746;2023-06-26T07:24:17;3.67;;;3.47;;
16516;SDS011;8371;52.272;9.746;2023-06-26T07:26:42;3.77;;;3.67;;
16516;SDS011;8371;52.272;9.746;2023-06-26T07:29:08;3.13;;;3.03;;
16516;SDS011;8371;52.272;9.746;2023-06-26T07:31:34;3.92;;;3.83;;
16516;SDS011;8371;52.272;9.746;2023-06-26T07:34:00;3.85;;;3.75;;
16516;SDS011;8371;52.272;9.746;2023-06-26T07:36:26;3.43;;;3.33;;
16516;SDS011;8371;52.272;9.746;2023-06-26T07:38:51;3.60;;;3.50;;
16516;SDS011;8371;52.272;9.746;2023-06-26T07:41:17;3.72;;;3.62;;
16516;SDS011;8371;52.272;9.746;2023-06-26T07:43:42;3.35;;;3.25;;
16516;SDS011;8371;52.272;9.746;2023-06-26T07:46:08;3.80;;;3.70;;
16516;SDS011;8371;52.272;9.746;2023-06-26T07:48:34;3.90;;;3.80;;
16516;SDS011;8371;52.272;9.746;2023-06-26T07:51:00;4.17;;;4.08;;
16516;SDS011;8371;52.272;9.746;2023-06-26T07:53:25;6.92;;;4.08;;
16516;SDS011;8371;52.272;9.746;2023-06-26T07:55:51;3.90;;;3.80;;
16516;SDS011;8371;52.272;9.746;2023-06-26T07:58:17;4.08;;;3.72;;
16516;SDS011;8371;52.272;9.746;2023-06-26T08:00:43;3.83;;;3.72;;
16516;SDS011;8371;52.272;9.746;2023-06-26T08:03:09;5.28;;;3.67;;
16516;SDS011;8371;52.272;9.746;2023-06-26T08:05:34;3.90;;;3.80;;
16516;SDS011;8371;52.272;9.746;2023-06-26T08:08:00;3.77;;;3.67;;
16516;SDS011;8371;52.272;9.746;2023-06-26T08:10:27;3.45;;;3.35;;
16516;SDS011;8371;52.272;9.746;2023-06-26T08:12:54;3.75;;;3.55;;
16516;SDS011;8371;52.272;9.746;2023-06-26T08:15:20;3.22;;;3.12;;
16516;SDS011;8371;52.272;9.746;2023-06-26T08:17:46;3.92;;;3.83;;
16516;SDS011;8371;52.272;9.746;2023-06-26T08:20:12;4.15;;;4.05;;
16516;SDS011;8371;52.272;9.746;2023-06-26T08:22:39;3.83;;;3.70;;
16516;SDS011;8371;52.272;9.746;2023-06-26T08:25:05;4.05;;;3.75;;
16516;SDS011;8371;52.272;9.746;2023-06-26T08:27:31;4.10;;;4.00;;
16516;SDS011;8371;52.272;9.746;2023-06-26T08:29:57;3.90;;;3.80;;
16516;SDS011;8371;52.272;9.746;2023-06-26T08:32:23;4.05;;;3.70;;
16516;SDS011;8371;52.272;9.746;2023-06-26T08:34:50;4.00;;;3.90;;
16516;SDS011;8371;52.272;9.746;2023-06-26T08:37:16;3.70;;;3.60;;
16516;SDS011;8371;52.272;9.746;2023-06-26T08:39:41;3.45;;;3.35;;
16516;SDS011;8371;52.272;9.746;2023-06-26T08:42:07;3.47;;;3.37;;
16516;SDS011;8371;52.272;9.746;2023-06-26T08:44:33;3.95;;;3.85;;
16516;SDS011;8371;52.272;9.746;2023-06-26T08:46:59;3.92;;;3.70;;
16516;SDS011;8371;52.272;9.746;2023-06-26T08:49:34;3.83;;;3.72;;
16516;SDS011;8371;52.272;9.746;2023-06-26T08:52:10;3.77;;;3.67;;
16516;SDS011;8371;52.272;9.746;2023-06-26T08:54:54;3.95;;;3.75;;
16516;SDS011;8371;52.272;9.746;2023-06-26T08:57:23;3.80;;;3.60;;
16516;SDS011;8371;52.272;9.746;2023-06-26T08:59:51;3.98;;;3.87;;
16516;SDS011;8371;52.272;9.746;2023-06-26T09:02:18;3.90;;;3.70;;
16516;SDS011;8371;52.272;9.746;2023-06-26T09:04:46;3.70;;;3.60;;
16516;SDS011;8371;52.272;9.746;2023-06-26T09:07:13;3.87;;;3.70;;
16516;SDS011;8371;52.272;9.746;2023-06-26T09:09:39;4.05;;;3.95;;
16516;SDS011;8371;52.272;9.746;2023-06-26T09:12:05;4.15;;;3.83;;
16516;SDS011;8371;52.272;9.746;2023-06-26T09:14:31;3.98;;;3.87;;
16516;SDS011;8371;52.272;9.746;2023-06-26T09:16:57;4.08;;;3.98;;
16516;SDS011;8371;52.272;9.746;2023-06-26T09:19:23;4.20;;;4.10;;
16516;SDS011;8371;52.272;9.746;2023-06-26T09:21:49;4.55;;;4.40;;
16516;SDS011;8371;52.272;9.746;2023-06-26T09:24:16;4.95;;;4.75;;
16516;SDS011;8371;52.272;9.746;2023-06-26T09:26:42;5.08;;;4.87;;
16516;SDS011;8371;52.272;9.746;2023-06-26T09:29:08;5.03;;;4.92;;
16516;SDS011;8371;52.272;9.746;2023-06-26T09:31:36;5.00;;;4.90;;
16516;SDS011;8371;52.272;9.746;2023-06-26T09:34:03;4.40;;;4.30;;
16516;SDS011;8371;52.272;9.746;2023-06-26T09:36:29;4.97;;;4.67;;
16516;SDS011;8371;52.272;9.746;2023-06-26T09:39:00;4.78;;;4.50;;
16516;SDS011;8371;52.272;9.746;2023-06-26T09:41:26;5.40;;;4.92;;
16516;SDS011;8371;52.272;9.746;2023-06-26T09:43:52;4.53;;;4.42;;
16516;SDS011;8371;52.272;9.746;2023-06-26T09:46:24;4.60;;;4.30;;
16516;SDS011;8371;52.272;9.746;2023-06-26T09:49:02;4.33;;;4.12;;
16516;SDS011;8371;52.272;9.746;2023-06-26T09:51:32;4.50;;;4.30;;
16516;SDS011;8371;52.272;9.746;2023-06-26T09:54:00;4.50;;;4.30;;
16516;SDS011;8371;52.272;9.746;2023-06-26T09:56:26;4.70;;;4.50;;
16516;SDS011;8371;52.272;9.746;2023-06-26T09:58:55;4.80;;;4.62;;
16516;SDS011;8371;52.272;9.746;2023-06-26T10:01:22;5.17;;;4.05;;
16516;SDS011;8371;52.272;9.746;2023-06-26T10:04:09;4.37;;;4.17;;
16516;SDS011;8371;52.272;9.746;2023-06-26T10:06:45;3.80;;;3.70;;
16516;SDS011;8371;52.272;9.746;2023-06-26T10:09:07;4.22;;;4.03;;
16516;SDS011;8371;52.272;9.746;2023-06-26T10:11:37;4.12;;;4.03;;
16516;SDS011;8371;52.272;9.746;2023-06-26T10:14:09;4.10;;;4.00;;
16516;SDS011;8371;52.272;9.746;2023-06-26T10:16:37;4.35;;;4.25;;
16516;SDS011;8371;52.272;9.746;2023-06-26T10:19:06;4.93;;;4.73;;
16516;SDS011;8371;52.272;9.746;2023-06-26T10:21:34;4.70;;;4.53;;
16516;SDS011;8371;52.272;9.746;2023-06-26T10:24:05;4.20;;;4.10;;
16516;SDS011;8371;52.272;9.746;2023-06-26T10:26:32;5.33;;;5.13;;
16516;SDS011;8371;52.272;9.746;2023-06-26T10:29:01;5.77;;;5.27;;
16516;SDS011;8371;52.272;9.746;2023-06-26T10:31:28;4.87;;;4.40;;
16516;SDS011;8371;52.272;9.746;2023-06-26T10:33:54;4.50;;;4.27;;
16516;SDS011;8371;52.272;9.746;2023-06-26T10:36:26;6.90;;;4.67;;
16516;SDS011;8371;52.272;9.746;2023-06-26T10:38:55;8.10;;;4.50;;
16516;SDS011;8371;52.272;9.746;2023-06-26T10:41:23;5.63;;;5.30;;
16516;SDS011;8371;52.272;9.746;2023-06-26T10:43:50;4.87;;;4.47;;
16516;SDS011;8371;52.272;9.746;2023-06-26T10:46:17;4.37;;;4.27;;
16516;SDS011;8371;52.272;9.746;2023-06-26T10:48:55;4.13;;;3.93;;
16516;SDS011;8371;52.272;9.746;2023-06-26T10:51:26;4.63;;;4.43;;
16516;SDS011;8371;52.272;9.746;2023-06-26T10:53:55;4.90;;;4.37;;
16516;SDS011;8371;52.272;9.746;2023-06-26T10:56:40;4.40;;;4.20;;
16516;SDS011;8371;52.272;9.746;2023-06-26T10:59:19;4.60;;;4.30;;
16516;SDS011;8371;52.272;9.746;2023-06-26T11:01:46;4.30;;;4.03;;
16516;SDS011;8371;52.272;9.746;2023-06-26T11:04:14;4.00;;;3.70;;
16516;SDS011;8371;52.272;9.746;2023-06-26T11:06:43;3.47;;;3.27;;
16516;SDS011;8371;52.272;9.746;2023-06-26T11:09:11;4.33;;;4.07;;
16516;SDS011;8371;52.272;9.746;2023-06-26T11:11:54;4.13;;;4.03;;
16516;SDS011;8371;52.272;9.746;2023-06-26T11:14:23;4.10;;;3.90;;
16516;SDS011;8371;52.272;9.746;2023-06-26T11:16:49;4.63;;;4.30;;
16516;SDS011;8371;52.272;9.746;2023-06-26T11:19:20;3.70;;;3.60;;
16516;SDS011;8371;52.272;9.746;2023-06-26T11:21:44;3.33;;;3.23;;
16516;SDS011;8371;52.272;9.746;2023-06-26T11:24:11;3.53;;;3.43;;
16516;SDS011;8371;52.272;9.746;2023-06-26T11:26:38;4.30;;;4.10;;
16516;SDS011;8371;52.272;9.746;2023-06-26T11:29:08;4.13;;;3.93;;
16516;SDS011;8371;52.272;9.746;2023-06-26T11:31:36;3.67;;;3.50;;
16516;SDS011;8371;52.272;9.746;2023-06-26T11:34:06;3.97;;;3.77;;
16516;SDS011;8371;52.272;9.746;2023-06-26T11:36:37;3.77;;;3.63;;
16516;SDS011;8371;52.272;9.746;2023-06-26T11:39:05;3.90;;;3.80;;
16516;SDS011;8371;52.272;9.746;2023-06-26T11:41:32;4.17;;;3.97;;
16516;SDS011;8371;52.272;9.746;2023-06-26T11:44:02;4.43;;;4.27;;
16516;SDS011;8371;52.272;9.746;2023-06-26T11:46:51;4.07;;;3.73;;
16516;SDS011;8371;52.272;9.746;2023-06-26T11:49:20;3.80;;;3.70;;
16516;SDS011;8371;52.272;9.746;2023-06-26T11:51:48;4.30;;;4.00;;
16516;SDS011;8371;52.272;9.746;2023-06-26T11:54:14;5.70;;;4.57;;
16516;SDS011;8371;52.272;9.746;2023-06-26T11:56:40;5.03;;;4.63;;
16516;SDS011;8371;52.272;9.746;2023-06-26T11:59:06;5.07;;;4.87;;
16516;SDS011;8371;52.272;9.746;2023-06-26T12:01:40;4.63;;;4.43;;
16516;SDS011;8371;52.272;9.746;2023-06-26T12:04:08;4.30;;;4.10;;
16516;SDS011;8371;52.272;9.746;2023-06-26T12:06:36;4.50;;;4.30;;
16516;SDS011;8371;52.272;9.746;2023-06-26T12:09:05;3.40;;;3.30;;
16516;SDS011;8371;52.272;9.746;2023-06-26T12:11:33;3.73;;;3.63;;
16516;SDS011;8371;52.272;9.746;2023-06-26T12:14:00;3.17;;;3.07;;
16516;SDS011;8371;52.272;9.746;2023-06-26T12:16:29;3.13;;;3.03;;
16516;SDS011;8371;52.272;9.746;2023-06-26T12:18:59;3.63;;;2.70;;
16516;SDS011;8371;52.272;9.746;2023-06-26T12:24:10;2.73;;;2.63;;
16516;SDS011;8371;52.272;9.746;2023-06-26T12:26:37;2.50;;;2.30;;
16516;SDS011;8371;52.272;9.746;2023-06-26T12:31:32;2.70;;;2.40;;
16516;SDS011;8371;52.272;9.746;2023-06-26T12:33:59;2.37;;;2.27;;
16516;SDS011;8371;52.272;9.746;2023-06-26T12:36:25;2.10;;;2.10;;
16516;SDS011;8371;52.272;9.746;2023-06-26T12:38:52;3.07;;;2.80;;
16516;SDS011;8371;52.272;9.746;2023-06-26T12:41:19;3.20;;;2.90;;
16516;SDS011;8371;52.272;9.746;2023-06-26T12:43:47;2.53;;;2.43;;
16516;SDS011;8371;52.272;9.746;2023-06-26T12:46:13;2.50;;;2.40;;
16516;SDS011;8371;52.272;9.746;2023-06-26T12:48:39;2.50;;;2.40;;
16516;SDS011;8371;52.272;9.746;2023-06-26T12:51:14;2.43;;;2.33;;
16516;SDS011;8371;52.272;9.746;2023-06-26T12:53:42;3.00;;;2.23;;
16516;SDS011;8371;52.272;9.746;2023-06-26T12:56:09;3.67;;;2.10;;
16516;SDS011;8371;52.272;9.746;2023-06-26T12:58:36;2.27;;;2.17;;
16516;SDS011;8371;52.272;9.746;2023-06-26T13:01:03;2.37;;;2.27;;
16516;SDS011;8371;52.272;9.746;2023-06-26T13:03:32;2.03;;;1.93;;
16516;SDS011;8371;52.272;9.746;2023-06-26T13:05:58;1.73;;;1.73;;
16516;SDS011;8371;52.272;9.746;2023-06-26T13:08:24;1.80;;;1.80;;
16516;SDS011;8371;52.272;9.746;2023-06-26T13:10:51;1.90;;;1.90;;
16516;SDS011;8371;52.272;9.746;2023-06-26T13:13:16;2.20;;;2.10;;
16516;SDS011;8371;52.272;9.746;2023-06-26T13:15:42;1.90;;;1.80;;
16516;SDS011;8371;52.272;9.746;2023-06-26T13:18:08;2.00;;;1.90;;
16516;SDS011;8371;52.272;9.746;2023-06-26T13:20:33;3.40;;;1.75;;
16516;SDS011;8371;52.272;9.746;2023-06-26T13:22:59;1.73;;;1.63;;
16516;SDS011;8371;52.272;9.746;2023-06-26T13:25:25;1.87;;;1.77;;
16516;SDS011;8371;52.272;9.746;2023-06-26T13:27:50;2.20;;;2.10;;
16516;SDS011;8371;52.272;9.746;2023-06-26T13:30:16;1.67;;;1.67;;
16516;SDS011;8371;52.272;9.746;2023-06-26T13:32:42;1.60;;;1.60;;
16516;SDS011;8371;52.272;9.746;2023-06-26T13:35:09;2.90;;;1.62;;
16516;SDS011;8371;52.272;9.746;2023-06-26T13:37:40;1.63;;;1.50;;
16516;SDS011;8371;52.272;9.746;2023-06-26T13:40:06;1.43;;;1.43;;
16516;SDS011;8371;52.272;9.746;2023-06-26T13:42:33;1.47;;;1.37;;
16516;SDS011;8371;52.272;9.746;2023-06-26T13:44:59;1.60;;;1.60;;
16516;SDS011;8371;52.272;9.746;2023-06-26T13:47:24;1.57;;;1.57;;
16516;SDS011;8371;52.272;9.746;2023-06-26T13:49:50;1.65;;;1.65;;
16516;SDS011;8371;52.272;9.746;2023-06-26T13:52:16;1.50;;;1.50;;
16516;SDS011;8371;52.272;9.746;2023-06-26T13:54:41;1.67;;;1.67;;
16516;SDS011;8371;52.272;9.746;2023-06-26T13:57:08;1.93;;;1.60;;
16516;SDS011;8371;52.272;9.746;2023-06-26T13:59:34;3.17;;;1.70;;
16516;SDS011;8371;52.272;9.746;2023-06-26T14:02:01;1.80;;;1.70;;
16516;SDS011;8371;52.272;9.746;2023-06-26T14:04:27;1.57;;;1.55;;
16516;SDS011;8371;52.272;9.746;2023-06-26T14:06:55;1.40;;;1.40;;
16516;SDS011;8371;52.272;9.746;2023-06-26T14:09:21;2.20;;;1.40;;
16516;SDS011;8371;52.272;9.746;2023-06-26T14:11:47;1.80;;;1.70;;
16516;SDS011;8371;52.272;9.746;2023-06-26T14:14:13;1.57;;;1.57;;
16516;SDS011;8371;52.272;9.746;2023-06-26T14:16:38;1.42;;;1.42;;
16516;SDS011;8371;52.272;9.746;2023-06-26T14:19:05;1.80;;;1.70;;
16516;SDS011;8371;52.272;9.746;2023-06-26T14:21:31;1.47;;;1.47;;
16516;SDS011;8371;52.272;9.746;2023-06-26T14:23:58;3.83;;;1.70;;
16516;SDS011;8371;52.272;9.746;2023-06-26T14:26:24;1.40;;;1.40;;
16516;SDS011;8371;52.272;9.746;2023-06-26T14:28:50;1.67;;;1.63;;
16516;SDS011;8371;52.272;9.746;2023-06-26T14:31:15;1.67;;;1.57;;
16516;SDS011;8371;52.272;9.746;2023-06-26T14:33:41;1.47;;;1.33;;
16516;SDS011;8371;52.272;9.746;2023-06-26T14:36:07;1.67;;;1.57;;
16516;SDS011;8371;52.272;9.746;2023-06-26T14:38:32;1.60;;;1.50;;
16516;SDS011;8371;52.272;9.746;2023-06-26T14:40:58;1.40;;;1.30;;
16516;SDS011;8371;52.272;9.746;2023-06-26T14:43:24;1.30;;;1.30;;
16516;SDS011;8371;52.272;9.746;2023-06-26T14:45:50;1.53;;;1.43;;
16516;SDS011;8371;52.272;9.746;2023-06-26T14:48:15;1.53;;;1.53;;
16516;SDS011;8371;52.272;9.746;2023-06-26T14:50:41;1.53;;;1.43;;
16516;SDS011;8371;52.272;9.746;2023-06-26T14:53:07;1.40;;;1.40;;
16516;SDS011;8371;52.272;9.746;2023-06-26T14:55:32;1.50;;;1.40;;
16516;SDS011;8371;52.272;9.746;2023-06-26T14:57:58;1.33;;;1.33;;
16516;SDS011;8371;52.272;9.746;2023-06-26T15:00:24;1.57;;;1.50;;
16516;SDS011;8371;52.272;9.746;2023-06-26T15:02:51;1.42;;;1.32;;
16516;SDS011;8371;52.272;9.746;2023-06-26T15:05:19;1.15;;;1.15;;
16516;SDS011;8371;52.272;9.746;2023-06-26T15:07:46;1.47;;;1.47;;